Time;durP1;ratioP1;P1;durP2;ratioP2;P2;SDS_P1;SDS_P2;PMS_P1;PMS_P2;Temp;Humidity;BMP_temperature;BMP_pressure;BME280_temperature;BME280_humidity;BME280_pressure;Samples;Min_cycle;Max_cycle;Signal;HPM_P1;HPM_P2
2022/05/26 00:01:26;;;;;;;9.45;8.20;;;17.60;68.30;;;;;;5008967;28;20037;-78
2022/05/26 00:03:52;;;;;;;12.27;7.97;;;17.70;68.10;;;;;;5027879;28;20419;-78
2022/05/26 00:06:20;;;;;;;10.43;7.70;;;17.70;67.80;;;;;;5012535;28;20037;-79
2022/05/26 00:08:47;;;;;;;10.07;8.60;;;17.70;67.90;;;;;;5009734;28;20025;-78
2022/05/26 00:11:15;;;;;;;11.68;8.00;;;17.70;68.10;;;;;;5009731;28;20041;-78
2022/05/26 00:13:41;;;;;;;11.77;7.80;;;17.70;67.80;;;;;;5009704;28;20502;-78
2022/05/26 00:16:08;;;;;;;10.57;8.25;;;17.70;67.60;;;;;;5026290;28;20077;-78
2022/05/26 00:18:34;;;;;;;14.15;8.50;;;17.80;67.60;;;;;;5028610;28;20033;-78
2022/05/26 00:21:00;;;;;;;12.23;8.25;;;17.70;67.80;;;;;;5028226;28;20036;-78
2022/05/26 00:23:26;;;;;;;14.13;8.27;;;17.70;67.80;;;;;;5028810;28;20026;-78
2022/05/26 00:25:52;;;;;;;16.40;8.45;;;17.70;67.70;;;;;;5028567;28;20066;-79
2022/05/26 00:28:19;;;;;;;11.02;8.27;;;17.80;67.70;;;;;;5027308;28;20033;-78
2022/05/26 00:30:45;;;;;;;12.70;8.15;;;17.70;67.60;;;;;;5028595;28;20506;-79
2022/05/26 00:33:12;;;;;;;10.80;8.05;;;17.80;67.40;;;;;;5028940;28;20502;-78
2022/05/26 00:35:40;;;;;;;11.20;9.00;;;17.80;67.10;;;;;;5028493;28;20029;-78
2022/05/26 00:38:10;;;;;;;14.82;8.48;;;17.90;66.90;;;;;;5027300;28;20083;-78
2022/05/26 00:40:37;;;;;;;16.10;8.65;;;17.90;66.90;;;;;;5027042;28;20021;-78
2022/05/26 00:43:03;;;;;;;11.30;8.60;;;17.80;67.20;;;;;;5026197;28;20038;-78
2022/05/26 00:45:34;;;;;;;12.70;8.45;;;17.90;67.00;;;;;;5028633;28;20518;-78
2022/05/26 00:48:00;;;;;;;11.77;8.30;;;17.80;67.20;;;;;;5010977;28;20041;-78
2022/05/26 00:50:28;;;;;;;9.40;7.95;;;17.90;67.00;;;;;;5026812;28;20037;-78
2022/05/26 00:52:59;;;;;;;11.38;8.20;;;17.80;67.10;;;;;;5028403;28;20037;-78
2022/05/26 00:55:28;;;;;;;13.90;8.15;;;17.70;67.40;;;;;;5028333;28;20033;-78
2022/05/26 00:58:04;;;;;;;9.80;8.07;;;17.70;67.70;;;;;;5026422;28;20026;-79
2022/05/26 01:00:33;;;;;;;12.05;8.18;;;17.70;67.50;;;;;;5008727;28;20037;-78
2022/05/26 01:03:22;;;;;;;11.30;8.32;;;17.80;67.40;;;;;;5026531;28;20037;-78
2022/05/26 01:05:55;;;;;;;13.18;8.35;;;17.70;67.60;;;;;;5025443;28;20468;-78
2022/05/26 01:08:29;;;;;;;10.55;8.30;;;17.70;68.00;;;;;;5025773;28;20025;-78
2022/05/26 01:10:55;;;;;;;12.55;8.60;;;17.70;67.80;;;;;;5009253;28;20037;-78
2022/05/26 01:13:21;;;;;;;12.80;8.60;;;17.70;67.50;;;;;;5025067;28;20048;-79
2022/05/26 01:15:52;;;;;;;10.45;8.00;;;17.80;67.40;;;;;;5030186;28;20030;-78
2022/05/26 01:18:19;;;;;;;;;;;17.70;67.80;;;;;;5016498;28;20353;-79
2022/05/26 01:20:54;;;;;;;10.25;7.50;;;17.70;67.80;;;;;;5062567;28;20379;-78
2022/05/26 01:23:41;;;;;;;13.10;8.63;;;17.60;67.90;;;;;;5012529;28;20033;-78
2022/05/26 01:26:19;;;;;;;13.65;8.05;;;17.60;67.90;;;;;;5030318;28;20417;-78
2022/05/26 01:28:57;;;;;;;15.82;8.38;;;17.60;68.30;;;;;;5040340;28;20053;-78
2022/05/26 01:31:33;;;;;;;15.45;8.75;;;17.60;67.80;;;;;;5028104;28;20049;-78
2022/05/26 01:34:31;;;;;;;13.75;8.73;;;17.70;67.70;;;;;;5013258;28;20503;-78
2022/05/26 01:37:26;;;;;;;13.98;8.05;;;17.70;67.60;;;;;;4975326;28;20049;-78
2022/05/26 01:40:07;;;;;;;14.18;8.23;;;17.60;68.10;;;;;;4983557;28;20047;-78
2022/05/26 01:42:48;;;;;;;14.63;8.10;;;17.60;67.90;;;;;;4988432;28;20038;-78
2022/05/26 01:45:44;;;;;;;10.48;8.40;;;17.60;67.80;;;;;;4976756;28;20038;-78
2022/05/26 01:48:31;;;;;;;11.48;7.80;;;17.70;67.80;;;;;;4955220;28;20058;-78
2022/05/26 01:51:08;;;;;;;13.75;8.55;;;17.60;67.90;;;;;;4939899;28;20374;-78
2022/05/26 01:53:41;;;;;;;13.00;8.77;;;17.60;68.00;;;;;;4948290;28;20058;-78
2022/05/26 01:56:24;;;;;;;12.05;8.35;;;17.60;68.10;;;;;;4948070;29;20042;-78
2022/05/26 01:59:13;;;;;;;14.43;8.75;;;17.60;67.90;;;;;;4956347;28;20045;-78
2022/05/26 02:01:42;;;;;;;13.65;8.32;;;17.60;68.00;;;;;;4914385;28;20035;-78
2022/05/26 02:04:24;;;;;;;11.43;7.68;;;17.60;68.10;;;;;;4935167;28;20031;-78
2022/05/26 02:07:13;;;;;;;9.13;7.93;;;17.60;68.10;;;;;;4935619;29;20035;-78
2022/05/26 02:09:41;;;;;;;9.50;8.07;;;17.50;68.50;;;;;;4947318;28;20054;-79
2022/05/26 02:12:21;;;;;;;12.63;8.35;;;17.50;68.40;;;;;;4940666;28;20493;-78
2022/05/26 02:15:13;;;;;;;14.10;8.25;;;17.50;68.70;;;;;;4975889;28;20030;-79
2022/05/26 02:17:45;;;;;;;10.40;8.98;;;17.60;68.30;;;;;;4975858;28;20537;-79
2022/05/26 02:20:18;;;;;;;13.52;8.70;;;17.60;68.30;;;;;;4975902;28;20026;-79
2022/05/26 02:23:03;;;;;;;14.63;8.40;;;17.60;68.50;;;;;;4975908;28;20427;-79
2022/05/26 02:25:29;;;;;;;9.63;7.97;;;17.60;68.30;;;;;;5022294;28;20037;-79
2022/05/26 02:27:56;;;;;;;11.98;8.80;;;17.50;68.40;;;;;;5027578;28;20041;-79
2022/05/26 02:30:26;;;;;;;12.45;8.13;;;17.50;68.80;;;;;;5044427;28;20038;-78
2022/05/26 02:32:52;;;;;;;10.52;8.50;;;17.50;68.50;;;;;;4992077;28;20033;-79
2022/05/26 02:35:23;;;;;;;14.95;8.90;;;17.50;68.80;;;;;;4991691;28;20029;-79
2022/05/26 02:37:52;;;;;;;16.17;8.73;;;17.50;68.70;;;;;;5009405;28;20034;-79
2022/05/26 02:40:18;;;;;;;11.82;8.50;;;17.60;68.70;;;;;;5009769;28;20034;-79
2022/05/26 02:42:50;;;;;;;11.07;8.45;;;17.50;68.50;;;;;;5010303;28;20038;-79
2022/05/26 02:45:56;;;;;;;10.65;7.80;;;17.50;69.40;;;;;;4995638;28;20400;-79
2022/05/26 02:48:22;;;;;;;10.85;7.88;;;17.40;69.40;;;;;;4937044;28;20108;-79
2022/05/26 02:51:10;;;;;;;14.95;8.43;;;17.40;69.50;;;;;;4935095;29;20105;-79
2022/05/26 02:53:45;;;;;;;13.68;8.20;;;17.40;69.50;;;;;;4906807;29;20060;-79
2022/05/26 02:56:16;;;;;;;10.90;8.23;;;17.30;70.00;;;;;;4904598;29;20470;-79
2022/05/26 02:59:07;;;;;;;10.32;7.70;;;17.30;69.80;;;;;;4920142;29;20039;-79
2022/05/26 03:01:36;;;;;;;9.82;7.47;;;17.40;69.30;;;;;;4885884;29;20023;-78
2022/05/26 03:04:17;;;;;;;12.48;8.27;;;17.30;69.50;;;;;;4882142;29;20032;-79
2022/05/26 03:07:00;;;;;;;14.68;8.38;;;17.30;70.00;;;;;;4868696;29;20051;-78
2022/05/26 03:09:26;;;;;;;8.70;7.60;;;17.30;70.40;;;;;;4876708;29;20137;-78
2022/05/26 03:11:56;;;;;;;13.68;8.50;;;17.20;70.60;;;;;;4897406;29;20060;-79
2022/05/26 03:14:23;;;;;;;13.02;8.55;;;17.20;70.40;;;;;;4900830;29;20028;-79
2022/05/26 03:16:49;;;;;;;14.15;8.07;;;17.30;70.40;;;;;;4929135;29;20043;-79
2022/05/26 03:19:15;;;;;;;12.13;7.65;;;17.20;70.50;;;;;;4956452;28;20041;-79
2022/05/26 03:21:41;;;;;;;12.23;8.13;;;17.20;70.50;;;;;;5008919;28;20038;-79
2022/05/26 03:24:08;;;;;;;11.48;8.18;;;17.20;70.50;;;;;;4992219;28;20034;-79
2022/05/26 03:26:34;;;;;;;11.80;8.30;;;17.20;70.60;;;;;;5006777;28;20499;-79
2022/05/26 03:29:00;;;;;;;13.02;8.13;;;17.20;70.80;;;;;;5007112;28;20034;-78
2022/05/26 03:31:26;;;;;;;13.80;8.15;;;17.20;70.60;;;;;;4990524;28;20476;-79
2022/05/26 03:42:10;;;;;;;14.52;7.78;;;17.30;70.30;;;;;;4999890;28;20045;-79
2022/05/26 03:44:36;;;;;;;18.85;8.57;;;17.20;70.60;;;;;;5006755;28;20038;-79
2022/05/26 03:47:02;;;;;;;13.27;8.65;;;17.20;70.60;;;;;;5023612;28;20038;-79
2022/05/26 03:49:28;;;;;;;12.18;7.97;;;17.10;70.90;;;;;;5027673;28;20390;-78
2022/05/26 03:51:57;;;;;;;13.63;8.40;;;17.10;70.90;;;;;;5028133;28;20042;-79
2022/05/26 03:54:24;;;;;;;9.90;8.10;;;17.10;70.80;;;;;;5030206;28;20523;-79
2022/05/26 03:56:50;;;;;;;10.63;8.15;;;17.20;70.40;;;;;;5028711;28;20033;-79
2022/05/26 03:59:17;;;;;;;8.80;8.00;;;17.20;70.30;;;;;;5027551;28;20021;-79
2022/05/26 04:01:43;;;;;;;10.50;7.55;;;17.10;70.40;;;;;;5028373;28;20033;-79
2022/05/26 04:04:09;;;;;;;14.60;8.57;;;17.10;70.60;;;;;;5027263;28;20037;-79
2022/05/26 04:06:36;;;;;;;11.43;8.20;;;17.00;70.60;;;;;;5028540;28;20056;-78
2022/05/26 04:09:03;;;;;;;9.48;8.45;;;17.10;70.60;;;;;;5037791;28;20032;-78
2022/05/26 04:11:29;;;;;;;10.85;8.05;;;17.00;70.50;;;;;;5011534;28;20049;-78
2022/05/26 04:13:55;;;;;;;10.70;7.70;;;17.00;70.60;;;;;;5004691;28;20064;-79
2022/05/26 04:16:21;;;;;;;12.15;8.15;;;17.00;70.90;;;;;;5028082;28;20512;-78
2022/05/26 04:18:47;;;;;;;10.15;7.85;;;17.00;70.70;;;;;;5027795;28;20029;-79
2022/05/26 04:21:14;;;;;;;14.32;8.45;;;17.10;70.60;;;;;;5029293;28;20468;-79
2022/05/26 04:23:40;;;;;;;12.93;7.78;;;17.10;70.60;;;;;;5009269;28;20465;-79
2022/05/26 04:26:07;;;;;;;9.98;7.85;;;17.00;70.50;;;;;;5028838;28;20034;-79
2022/05/26 04:28:33;;;;;;;9.48;7.47;;;17.10;70.60;;;;;;5006304;28;20037;-78
2022/05/26 04:30:59;;;;;;;8.75;7.68;;;16.90;71.00;;;;;;5026095;28;20037;-78
2022/05/26 04:33:25;;;;;;;9.45;7.63;;;16.90;71.30;;;;;;5029580;28;20503;-79
2022/05/26 04:35:52;;;;;;;10.70;7.65;;;17.00;71.60;;;;;;5028560;28;20464;-78
2022/05/26 04:38:19;;;;;;;10.07;7.78;;;17.00;70.70;;;;;;5028397;28;20029;-79
2022/05/26 04:41:06;;;;;;;15.15;7.65;;;16.90;70.80;;;;;;5027160;28;20025;-79
2022/05/26 04:43:32;;;;;;;12.25;7.55;;;17.00;70.80;;;;;;5026776;28;20040;-79
2022/05/26 04:45:59;;;;;;;12.65;8.07;;;17.10;70.70;;;;;;5025906;28;20052;-79
2022/05/26 04:48:25;;;;;;;14.20;8.00;;;17.00;70.60;;;;;;5041684;28;20026;-79
2022/05/26 04:50:52;;;;;;;9.93;7.75;;;17.10;70.30;;;;;;5030893;28;20033;-78
2022/05/26 04:53:18;;;;;;;9.00;8.07;;;17.00;70.50;;;;;;5032276;28;20052;-78
2022/05/26 04:55:45;;;;;;;10.20;7.68;;;17.10;70.70;;;;;;5032268;28;20472;-78
2022/05/26 04:58:11;;;;;;;8.57;7.72;;;17.00;70.50;;;;;;5030687;28;20030;-79
2022/05/26 05:00:37;;;;;;;9.63;7.72;;;17.00;70.30;;;;;;5031558;28;20034;-78
2022/05/26 05:03:03;;;;;;;11.02;7.45;;;16.90;70.70;;;;;;5030759;28;20060;-79
2022/05/26 05:05:29;;;;;;;9.02;7.63;;;16.80;71.20;;;;;;5012818;28;20029;-78
2022/05/26 05:07:55;;;;;;;13.30;7.90;;;16.90;71.10;;;;;;5031963;28;20026;-79
2022/05/26 05:10:21;;;;;;;8.48;7.63;;;16.80;71.20;;;;;;5041255;28;20038;-78
2022/05/26 05:12:48;;;;;;;9.40;7.40;;;16.90;71.80;;;;;;5032306;28;20037;-79
2022/05/26 05:15:18;;;;;;;10.20;7.38;;;16.90;70.60;;;;;;5047764;28;20037;-78
2022/05/26 05:17:44;;;;;;;8.18;7.40;;;16.80;70.70;;;;;;5031944;28;20048;-79
2022/05/26 05:20:11;;;;;;;12.63;7.68;;;16.90;70.80;;;;;;5032111;28;20383;-78
2022/05/26 05:22:46;;;;;;;8.68;7.72;;;16.90;71.10;;;;;;5028837;28;20056;-78
2022/05/26 05:25:24;;;;;;;8.30;7.25;;;16.90;70.80;;;;;;5029616;28;20014;-78
2022/05/26 05:27:58;;;;;;;8.63;7.25;;;16.80;70.90;;;;;;5030493;28;20399;-79
2022/05/26 05:30:30;;;;;;;8.45;7.32;;;16.80;70.90;;;;;;5045217;28;20038;-78
2022/05/26 05:33:08;;;;;;;9.40;7.60;;;16.90;71.00;;;;;;5027514;28;20049;-78
2022/05/26 05:36:02;;;;;;;8.95;7.47;;;17.00;70.50;;;;;;5011875;28;20395;-79
2022/05/26 05:38:28;;;;;;;11.25;7.70;;;17.10;70.10;;;;;;4995591;28;20037;-79
2022/05/26 05:40:54;;;;;;;9.60;7.68;;;17.10;69.80;;;;;;5010098;28;20025;-78
2022/05/26 05:43:20;;;;;;;8.02;7.38;;;16.90;70.20;;;;;;5010640;28;20492;-79
2022/05/26 05:45:46;;;;;;;9.13;7.85;;;16.90;70.40;;;;;;5011562;28;20057;-79
2022/05/26 05:48:12;;;;;;;8.65;7.65;;;17.00;70.20;;;;;;5010807;28;20029;-78
2022/05/26 05:50:39;;;;;;;8.45;7.70;;;16.90;70.00;;;;;;5008986;28;20409;-79
2022/05/26 05:53:05;;;;;;;10.43;7.40;;;17.00;70.40;;;;;;4992561;28;20396;-78
2022/05/26 05:55:31;;;;;;;8.63;7.68;;;16.90;69.90;;;;;;5008699;28;20477;-79
2022/05/26 05:57:57;;;;;;;9.07;7.65;;;16.90;70.00;;;;;;5009513;28;20404;-79
2022/05/26 06:00:23;;;;;;;8.65;7.72;;;16.90;70.90;;;;;;4995518;28;20061;-78
2022/05/26 06:02:49;;;;;;;9.93;7.85;;;16.90;70.00;;;;;;4991855;28;20041;-78
2022/05/26 06:05:15;;;;;;;8.63;7.72;;;17.00;69.80;;;;;;4975027;28;20096;-78
2022/05/26 06:07:42;;;;;;;8.15;7.45;;;17.00;69.60;;;;;;5008613;28;20461;-78
2022/05/26 06:10:10;;;;;;;8.30;7.60;;;16.90;69.40;;;;;;5010136;28;20046;-79
2022/05/26 06:12:36;;;;;;;7.88;7.35;;;16.90;69.50;;;;;;4994009;28;20057;-78
2022/05/26 06:15:03;;;;;;;8.27;7.60;;;16.90;69.40;;;;;;4993000;28;20392;-78
2022/05/26 06:17:29;;;;;;;8.30;7.60;;;16.90;69.30;;;;;;5013950;28;20399;-79
2022/05/26 06:19:55;;;;;;;7.70;7.10;;;16.90;69.50;;;;;;5014086;28;20029;-79
2022/05/26 06:22:22;;;;;;;8.07;7.38;;;16.90;70.00;;;;;;5030534;28;20029;-79
2022/05/26 06:24:48;;;;;;;10.73;7.47;;;17.00;69.70;;;;;;5029668;28;20407;-79
2022/05/26 06:30:01;;;;;;;8.50;7.90;;;17.20;69.30;;;;;;5034939;28;20040;-79
2022/05/26 06:37:58;;;;;;;7.85;7.28;;;17.40;68.70;;;;;;5032547;28;20044;-78
2022/05/26 06:40:24;;;;;;;7.70;7.20;;;17.30;68.80;;;;;;5030268;28;20462;-79
2022/05/26 06:42:50;;;;;;;8.00;7.28;;;17.20;68.60;;;;;;5029326;28;20033;-78
2022/05/26 06:45:18;;;;;;;8.32;7.60;;;17.20;68.90;;;;;;5030696;28;20076;-79
2022/05/26 06:47:44;;;;;;;8.63;7.85;;;17.30;68.80;;;;;;5029994;28;20017;-79
2022/05/26 06:50:10;;;;;;;8.75;7.88;;;17.30;68.10;;;;;;5030312;28;20037;-79
2022/05/26 06:52:37;;;;;;;7.85;7.45;;;17.40;68.70;;;;;;5030186;28;20052;-78
2022/05/26 06:55:05;;;;;;;7.90;7.40;;;17.30;68.10;;;;;;5027996;28;20387;-79
2022/05/26 06:57:31;;;;;;;8.02;7.25;;;17.40;68.10;;;;;;5010501;28;20046;-79
2022/05/26 06:59:57;;;;;;;8.23;7.65;;;17.50;67.30;;;;;;5027846;28;20060;-79
2022/05/26 07:02:24;;;;;;;8.02;7.35;;;17.40;67.20;;;;;;5026682;28;20052;-79
2022/05/26 07:04:50;;;;;;;7.85;7.35;;;17.40;67.10;;;;;;5026961;28;20384;-79
2022/05/26 07:07:17;;;;;;;7.45;7.05;;;17.40;66.80;;;;;;5028723;28;20038;-79
2022/05/26 07:09:43;;;;;;;8.00;7.40;;;17.40;66.80;;;;;;5043517;28;20055;-79
2022/05/26 07:12:10;;;;;;;7.65;7.25;;;17.40;67.40;;;;;;5008426;28;20041;-79
2022/05/26 07:14:36;;;;;;;7.60;7.10;;;17.40;66.70;;;;;;5024497;28;20041;-79
2022/05/26 07:17:02;;;;;;;7.05;6.63;;;17.50;67.30;;;;;;5026512;28;20041;-79
2022/05/26 07:19:32;;;;;;;7.55;7.13;;;17.50;66.90;;;;;;5012249;28;20029;-79
2022/05/26 07:21:58;;;;;;;7.80;7.30;;;17.50;66.80;;;;;;5011718;28;20026;-79
2022/05/26 07:24:24;;;;;;;7.65;7.25;;;17.60;67.00;;;;;;5031784;28;20044;-79
2022/05/26 07:26:50;;;;;;;7.80;7.40;;;17.60;66.10;;;;;;5026698;28;20479;-79
2022/05/26 07:29:17;;;;;;;8.13;7.63;;;17.50;65.10;;;;;;5029629;28;20021;-79
2022/05/26 07:31:43;;;;;;;8.05;7.55;;;17.40;65.10;;;;;;5029051;28;20037;-79
2022/05/26 07:34:09;;;;;;;7.95;7.55;;;17.30;66.00;;;;;;5043551;28;20387;-79
2022/05/26 07:42:07;;;;;;;7.95;7.55;;;17.70;63.90;;;;;;5017695;28;20038;-79
2022/05/26 07:44:37;;;;;;;7.70;7.30;;;17.70;64.20;;;;;;5010148;28;20033;-79
2022/05/26 07:47:04;;;;;;;8.70;8.10;;;17.80;64.10;;;;;;4980471;28;20499;-79
2022/05/26 07:49:33;;;;;;;8.00;7.60;;;17.80;63.30;;;;;;5009454;28;20030;-79
2022/05/26 07:52:01;;;;;;;8.10;7.60;;;17.80;62.80;;;;;;5024268;28;20034;-79
2022/05/26 07:54:30;;;;;;;8.63;8.13;;;17.80;63.10;;;;;;5005709;28;20056;-79
2022/05/26 07:56:57;;;;;;;8.80;8.20;;;17.90;63.30;;;;;;5041425;28;20025;-79
2022/05/26 07:59:23;;;;;;;8.88;8.27;;;18.00;62.30;;;;;;5022765;28;20022;-79
2022/05/26 08:01:49;;;;;;;8.73;8.27;;;18.10;62.30;;;;;;5022489;28;20045;-79
2022/05/26 08:04:16;;;;;;;8.43;7.93;;;18.10;62.40;;;;;;5039462;28;20476;-79
2022/05/26 08:06:46;;;;;;;8.45;8.05;;;18.10;61.00;;;;;;5008774;28;20026;-79
2022/05/26 08:09:22;;;;;;;8.55;8.10;;;17.90;60.80;;;;;;5040112;28;20061;-79
2022/05/26 08:11:48;;;;;;;8.75;8.25;;;17.70;60.70;;;;;;4992653;28;20045;-79
2022/05/26 08:14:14;;;;;;;8.43;7.85;;;17.70;62.20;;;;;;5007399;28;20045;-79
2022/05/26 08:16:40;;;;;;;8.55;8.02;;;17.80;61.20;;;;;;5038894;28;20041;-79
2022/05/26 08:19:06;;;;;;;8.27;7.88;;;17.90;62.20;;;;;;5039360;28;20030;-79
2022/05/26 08:21:32;;;;;;;8.43;8.02;;;18.00;62.00;;;;;;5009440;28;20045;-79
2022/05/26 08:24:00;;;;;;;9.10;8.50;;;18.00;60.30;;;;;;5006689;28;20048;-79
2022/05/26 08:26:28;;;;;;;8.88;8.48;;;18.00;60.00;;;;;;5022095;28;20412;-79
2022/05/26 08:28:58;;;;;;;8.30;7.90;;;17.90;59.80;;;;;;5022243;28;20393;-79
2022/05/26 08:31:25;;;;;;;8.07;7.68;;;17.80;60.80;;;;;;5016529;28;20033;-79
2022/05/26 08:33:51;;;;;;;8.32;7.75;;;17.80;61.60;;;;;;5027096;28;20160;-79
2022/05/26 08:36:20;;;;;;;8.30;7.90;;;17.90;62.00;;;;;;5044939;28;20188;-79
2022/05/26 08:38:46;;;;;;;8.43;7.93;;;18.00;62.10;;;;;;5028586;28;20029;-79
2022/05/26 08:41:47;;;;;;;8.27;7.88;;;18.00;62.30;;;;;;5028495;28;20028;-79
2022/05/26 08:44:29;;;;;;;8.10;7.70;;;18.00;62.00;;;;;;5025568;28;20484;-79
2022/05/26 08:47:14;;;;;;;8.52;8.02;;;18.10;62.20;;;;;;5027917;28;20049;-79
2022/05/26 08:49:47;;;;;;;8.48;7.97;;;18.10;61.70;;;;;;5028627;28;20032;-79
2022/05/26 08:52:15;;;;;;;8.35;7.95;;;18.10;62.60;;;;;;5026510;28;20041;-79
2022/05/26 08:54:56;;;;;;;8.25;7.75;;;18.20;62.40;;;;;;5027885;28;20037;-79
2022/05/26 08:57:32;;;;;;;9.02;8.43;;;18.30;62.40;;;;;;5030149;28;20034;-79
2022/05/26 08:59:58;;;;;;;8.40;7.90;;;18.30;62.40;;;;;;5028405;28;20038;-79
2022/05/26 09:02:25;;;;;;;8.38;7.97;;;18.50;62.10;;;;;;5027776;28;20408;-80
2022/05/26 09:04:54;;;;;;;8.90;8.50;;;18.40;63.10;;;;;;5028164;28;20542;-79
2022/05/26 09:12:59;;;;;;;9.00;8.60;;;18.60;62.60;;;;;;5032097;28;20037;-79
2022/05/26 09:15:28;;;;;;;8.88;8.35;;;18.80;61.80;;;;;;5044265;28;20358;-79
2022/05/26 09:17:55;;;;;;;9.48;8.88;;;18.80;60.90;;;;;;5025140;28;20394;-79
2022/05/26 09:20:36;;;;;;;8.98;8.57;;;18.80;60.00;;;;;;5028209;28;20063;-79
2022/05/26 09:23:22;;;;;;;8.77;8.38;;;18.60;60.10;;;;;;5028311;28;20045;-79
2022/05/26 09:25:54;;;;;;;9.10;8.70;;;18.40;60.30;;;;;;5028422;28;20041;-79
2022/05/26 09:28:49;;;;;;;8.75;8.25;;;18.40;60.90;;;;;;5027590;28;20033;-79
2022/05/26 09:31:21;;;;;;;8.75;8.25;;;18.40;60.60;;;;;;5002080;28;20042;-80
2022/05/26 09:34:09;;;;;;;9.40;8.90;;;18.60;62.10;;;;;;5007485;28;20041;-80
2022/05/26 09:36:52;;;;;;;9.50;9.00;;;18.90;62.00;;;;;;5006914;28;20033;-80
2022/05/26 09:39:21;;;;;;;9.80;9.30;;;19.20;60.70;;;;;;4995176;28;20041;-80
2022/05/26 09:41:50;;;;;;;9.63;9.13;;;19.40;58.80;;;;;;4992362;28;20050;-80
2022/05/26 09:44:34;;;;;;;9.73;9.23;;;19.50;59.70;;;;;;5011420;28;20112;-80
2022/05/26 09:47:03;;;;;;;10.40;9.70;;;19.60;58.60;;;;;;5011242;28;20034;-80
2022/05/26 09:49:38;;;;;;;9.27;8.77;;;19.60;59.40;;;;;;5011731;28;20380;-80
2022/05/26 09:52:17;;;;;;;10.40;9.90;;;19.70;57.90;;;;;;4978772;28;20050;-80
2022/05/26 09:54:44;;;;;;;10.35;9.75;;;19.70;59.10;;;;;;4993207;28;20057;-80
2022/05/26 09:57:20;;;;;;;10.10;9.50;;;19.60;59.70;;;;;;4993986;28;20032;-80
2022/05/26 09:59:47;;;;;;;9.77;9.27;;;19.40;60.40;;;;;;4992153;28;20057;-80
2022/05/26 10:02:27;;;;;;;9.90;9.35;;;19.40;61.00;;;;;;5009637;28;20040;-80
2022/05/26 10:05:05;;;;;;;10.00;9.40;;;19.40;61.20;;;;;;4999401;28;20042;-80
2022/05/26 10:07:38;;;;;;;10.40;9.60;;;19.60;61.10;;;;;;5008648;28;20659;-80
2022/05/26 10:10:59;;;;;;;9.95;9.40;;;19.60;61.00;;;;;;5040952;28;20033;-80
2022/05/26 10:13:28;;;;;;;10.40;9.80;;;19.70;61.50;;;;;;4959377;28;20081;-80
2022/05/26 10:16:15;;;;;;;9.70;9.20;;;19.80;61.20;;;;;;4970590;28;20110;-80
2022/05/26 10:19:07;;;;;;;10.45;9.90;;;19.70;60.60;;;;;;4971259;28;20038;-80
2022/05/26 10:22:02;;;;;;;10.38;9.77;;;19.70;60.70;;;;;;4966690;28;20050;-80
2022/05/26 10:24:52;;;;;;;10.00;9.50;;;19.70;60.20;;;;;;4952899;28;20054;-80
2022/05/26 10:27:27;;;;;;;9.50;8.85;;;19.70;60.20;;;;;;4954054;28;20050;-80
2022/05/26 10:30:23;;;;;;;9.90;9.40;;;19.70;60.70;;;;;;4970571;28;20049;-80
2022/05/26 10:33:22;;;;;;;9.98;9.30;;;19.60;60.90;;;;;;4953082;28;20497;-80
2022/05/26 10:35:54;;;;;;;9.73;9.13;;;19.60;60.70;;;;;;4986402;28;20058;-80
2022/05/26 10:38:31;;;;;;;10.20;9.40;;;19.50;61.20;;;;;;4986456;28;20039;-80
2022/05/26 10:41:34;;;;;;;9.65;9.15;;;19.60;61.70;;;;;;4970584;28;20030;-80
2022/05/26 10:44:09;;;;;;;9.95;9.43;;;19.70;61.00;;;;;;4970720;28;20031;-80
2022/05/26 10:46:38;;;;;;;10.30;9.50;;;19.60;61.10;;;;;;4985155;28;20037;-80
2022/05/26 10:49:24;;;;;;;9.70;9.20;;;19.60;60.70;;;;;;5027836;28;20041;-80
2022/05/26 10:52:07;;;;;;;10.63;10.02;;;19.40;61.10;;;;;;5014510;28;20050;-80
2022/05/26 10:54:39;;;;;;;9.82;9.25;;;19.40;60.80;;;;;;5011347;28;20038;-79
2022/05/26 10:57:10;;;;;;;9.80;9.30;;;19.40;59.80;;;;;;5013376;28;20040;-80
2022/05/26 10:59:36;;;;;;;9.02;8.55;;;19.20;60.10;;;;;;5011688;28;20040;-80
2022/05/26 11:02:20;;;;;;;10.60;9.57;;;19.20;60.90;;;;;;5028073;28;20032;-80
2022/05/26 11:05:04;;;;;;;10.60;10.10;;;19.40;61.00;;;;;;5029840;28;20021;-80
2022/05/26 11:07:56;;;;;;;10.20;9.70;;;19.70;61.10;;;;;;5028722;28;20028;-80
2022/05/26 11:10:24;;;;;;;10.25;9.63;;;19.90;59.10;;;;;;5060230;28;20044;-80
2022/05/26 11:13:04;;;;;;;10.68;10.07;;;19.90;59.00;;;;;;5028797;28;20041;-80
2022/05/26 11:18:53;;;;;;;11.65;10.80;;;20.30;60.30;;;;;;5037475;28;20044;-81
2022/05/26 11:21:21;;;;;;;11.45;10.65;;;20.40;58.30;;;;;;5028190;28;20060;-80
2022/05/26 11:23:47;;;;;;;11.38;10.68;;;20.50;58.70;;;;;;5013000;28;20044;-80
2022/05/26 11:26:16;;;;;;;11.98;11.38;;;20.60;58.60;;;;;;5013004;28;20045;-80
2022/05/26 11:29:07;;;;;;;12.05;11.35;;;20.70;58.60;;;;;;5026391;28;20037;-81
2022/05/26 11:38:16;;;;;;;11.30;10.68;;;20.90;57.90;;;;;;4946673;28;20040;-81
2022/05/26 11:40:51;;;;;;;12.30;11.32;;;21.00;58.10;;;;;;4931075;29;20027;-81
2022/05/26 11:43:29;;;;;;;11.55;10.85;;;20.80;57.60;;;;;;4931792;29;20508;-81
2022/05/26 11:45:57;;;;;;;11.25;10.65;;;20.70;57.90;;;;;;4947562;28;20405;-80
2022/05/26 11:48:33;;;;;;;11.70;10.95;;;20.60;58.00;;;;;;4950398;28;20532;-81
2022/05/26 11:51:30;;;;;;;11.23;10.45;;;20.50;57.70;;;;;;4947950;29;20050;-81
2022/05/26 11:53:56;;;;;;;11.07;10.48;;;20.40;57.50;;;;;;4947930;29;20055;-80
2022/05/26 11:56:28;;;;;;;11.20;10.43;;;20.30;58.50;;;;;;4899840;29;20046;-80
2022/05/26 11:59:26;;;;;;;11.35;10.65;;;20.30;58.60;;;;;;4946974;28;20031;-80
2022/05/26 12:01:58;;;;;;;11.60;10.70;;;20.40;59.00;;;;;;4930620;28;20046;-81
2022/05/26 12:04:32;;;;;;;10.63;10.05;;;20.50;58.70;;;;;;4930331;28;20046;-81
2022/05/26 12:07:14;;;;;;;11.73;10.88;;;20.50;58.90;;;;;;4947160;29;20367;-81
2022/05/26 12:09:48;;;;;;;11.38;10.75;;;20.60;58.80;;;;;;4930539;29;20430;-81
2022/05/26 12:12:16;;;;;;;11.73;11.13;;;20.70;58.40;;;;;;4980892;28;20061;-81
2022/05/26 12:14:55;;;;;;;11.07;10.43;;;20.70;58.30;;;;;;5012720;28;20064;-80
2022/05/26 12:17:30;;;;;;;11.50;10.73;;;20.70;58.60;;;;;;5022613;28;20025;-80
2022/05/26 12:20:04;;;;;;;11.60;11.00;;;20.70;58.20;;;;;;5027226;28;20033;-81
2022/05/26 12:22:37;;;;;;;11.27;10.57;;;20.70;58.10;;;;;;5006319;28;20136;-81
2022/05/26 12:25:24;;;;;;;11.45;10.85;;;20.60;57.20;;;;;;5011299;28;20040;-80
2022/05/26 12:27:56;;;;;;;11.02;10.07;;;20.30;57.40;;;;;;5028843;28;20033;-80
2022/05/26 12:30:39;;;;;;;10.55;9.95;;;20.00;58.70;;;;;;5029950;28;20045;-81
2022/05/26 12:33:20;;;;;;;10.68;10.07;;;20.10;59.30;;;;;;5029501;28;20045;-81
2022/05/26 12:36:20;;;;;;;11.13;10.52;;;20.20;59.20;;;;;;5026961;28;20029;-80
2022/05/26 12:38:57;;;;;;;11.20;10.60;;;20.30;58.70;;;;;;5025510;28;20045;-81
2022/05/26 12:41:41;;;;;;;11.02;10.43;;;20.30;57.80;;;;;;5028693;28;20030;-81
2022/05/26 12:44:32;;;;;;;10.85;10.25;;;20.20;58.30;;;;;;5027126;28;20033;-80
2022/05/26 12:47:05;;;;;;;11.07;10.48;;;20.30;58.90;;;;;;5027874;28;20476;-81
2022/05/26 12:49:57;;;;;;;10.88;10.32;;;20.30;58.20;;;;;;5028464;28;20029;-80
2022/05/26 12:52:38;;;;;;;9.82;9.00;;;20.10;58.30;;;;;;5014894;28;20022;-81
2022/05/26 12:55:43;;;;;;;11.05;10.43;;;20.10;59.80;;;;;;5025765;28;20033;-81
2022/05/26 12:58:13;;;;;;;10.90;10.20;;;20.10;58.90;;;;;;4954714;28;20450;-81
2022/05/26 13:00:43;;;;;;;10.48;9.98;;;20.10;59.10;;;;;;4968442;28;20195;-80
2022/05/26 13:03:18;;;;;;;10.75;10.15;;;20.30;58.70;;;;;;4953139;28;20828;-80
2022/05/26 13:05:52;;;;;;;10.90;10.20;;;20.30;58.90;;;;;;4968080;28;20401;-80
2022/05/26 13:08:21;;;;;;;10.57;9.98;;;20.40;59.10;;;;;;4968215;28;20407;-81
2022/05/26 13:10:47;;;;;;;10.57;9.90;;;20.30;59.10;;;;;;4936667;28;20091;-81
2022/05/26 13:13:24;;;;;;;11.00;10.40;;;20.30;59.10;;;;;;4939572;28;20042;-81
2022/05/26 13:15:50;;;;;;;10.55;10.05;;;20.40;58.70;;;;;;4971313;28;20046;-81
2022/05/26 13:18:21;;;;;;;11.90;11.00;;;20.50;58.80;;;;;;4957026;28;20481;-81
2022/05/26 13:20:47;;;;;;;11.25;10.65;;;20.60;58.30;;;;;;4971417;28;20050;-81
2022/05/26 13:23:30;;;;;;;11.50;10.80;;;20.60;58.40;;;;;;4972147;28;20052;-81
2022/05/26 13:25:59;;;;;;;11.00;10.38;;;20.60;58.00;;;;;;4971173;28;20039;-81
2022/05/26 13:28:29;;;;;;;11.73;10.88;;;20.60;58.50;;;;;;4971820;28;20175;-81
2022/05/26 13:33:50;;;;;;;10.90;10.35;;;20.60;57.90;;;;;;5005210;28;20041;-80
2022/05/26 13:36:29;;;;;;;11.50;10.88;;;20.40;57.60;;;;;;5027623;28;20041;-80
2022/05/26 13:38:55;;;;;;;10.85;10.25;;;20.40;58.10;;;;;;5030218;28;20037;-81
2022/05/26 13:41:26;;;;;;;11.35;10.65;;;20.50;58.50;;;;;;4998682;28;20049;-81
2022/05/26 13:43:52;;;;;;;12.02;11.43;;;20.60;58.00;;;;;;5031504;28;20067;-80
2022/05/26 13:46:28;;;;;;;11.65;10.95;;;20.60;57.10;;;;;;5030237;28;20033;-80
2022/05/26 13:48:58;;;;;;;10.82;10.23;;;20.50;57.80;;;;;;5013023;28;20041;-80